sensor_id;sensor_type;location;lat;lon;timestamp;P1;durP1;ratioP1;P2;durP2;ratioP2
22837;SDS011;11585;51.450;-0.240;2023-07-24T00:02:17;9.57;;;2.63;;
22837;SDS011;11585;51.450;-0.240;2023-07-24T00:07:29;8.32;;;2.72;;
22837;SDS011;11585;51.450;-0.240;2023-07-24T00:09:55;7.43;;;2.60;;
22837;SDS011;11585;51.450;-0.240;2023-07-24T00:12:24;6.15;;;2.40;;
22837;SDS011;11585;51.450;-0.240;2023-07-24T00:17:19;3.78;;;2.20;;
22837;SDS011;11585;51.450;-0.240;2023-07-24T00:19:45;7.72;;;2.67;;
22837;SDS011;11585;51.450;-0.240;2023-07-24T00:22:11;8.32;;;2.72;;
22837;SDS011;11585;51.450;-0.240;2023-07-24T00:24:37;7.13;;;2.85;;
22837;SDS011;11585;51.450;-0.240;2023-07-24T00:27:03;7.93;;;2.83;;
22837;SDS011;11585;51.450;-0.240;2023-07-24T00:29:29;4.38;;;2.50;;
22837;SDS011;11585;51.450;-0.240;2023-07-24T00:31:55;3.88;;;2.30;;
22837;SDS011;11585;51.450;-0.240;2023-07-24T00:34:20;8.48;;;2.47;;
22837;SDS011;11585;51.450;-0.240;2023-07-24T00:40:09;8.32;;;2.47;;
22837;SDS011;11585;51.450;-0.240;2023-07-24T00:42:35;6.00;;;2.35;;
22837;SDS011;11585;51.450;-0.240;2023-07-24T00:47:45;8.80;;;2.55;;
22837;SDS011;11585;51.450;-0.240;2023-07-24T00:50:14;6.25;;;2.22;;
22837;SDS011;11585;51.450;-0.240;2023-07-24T00:52:40;9.73;;;2.35;;
22837;SDS011;11585;51.450;-0.240;2023-07-24T00:57:44;6.30;;;2.70;;
22837;SDS011;11585;51.450;-0.240;2023-07-24T01:00:10;6.05;;;2.53;;
22837;SDS011;11585;51.450;-0.240;2023-07-24T01:02:36;5.38;;;2.70;;
22837;SDS011;11585;51.450;-0.240;2023-07-24T01:08:11;8.95;;;2.85;;
22837;SDS011;11585;51.450;-0.240;2023-07-24T01:10:37;6.35;;;2.35;;
22837;SDS011;11585;51.450;-0.240;2023-07-24T01:13:15;7.22;;;2.53;;
22837;SDS011;11585;51.450;-0.240;2023-07-24T01:15:56;5.85;;;2.47;;
22837;SDS011;11585;51.450;-0.240;2023-07-24T01:18:28;9.38;;;2.67;;
22837;SDS011;11585;51.450;-0.240;2023-07-24T01:20:56;7.47;;;3.00;;
22837;SDS011;11585;51.450;-0.240;2023-07-24T01:26:01;6.78;;;2.33;;
22837;SDS011;11585;51.450;-0.240;2023-07-24T01:28:27;7.28;;;2.30;;
22837;SDS011;11585;51.450;-0.240;2023-07-24T01:30:53;6.95;;;2.40;;
22837;SDS011;11585;51.450;-0.240;2023-07-24T01:33:19;9.15;;;3.15;;
22837;SDS011;11585;51.450;-0.240;2023-07-24T01:38:32;7.25;;;2.80;;
22837;SDS011;11585;51.450;-0.240;2023-07-24T01:41:00;5.10;;;2.03;;
22837;SDS011;11585;51.450;-0.240;2023-07-24T01:43:26;5.60;;;2.25;;
22837;SDS011;11585;51.450;-0.240;2023-07-24T01:45:53;5.45;;;2.20;;
22837;SDS011;11585;51.450;-0.240;2023-07-24T01:48:19;6.43;;;2.45;;
22837;SDS011;11585;51.450;-0.240;2023-07-24T01:50:45;9.52;;;3.35;;
22837;SDS011;11585;51.450;-0.240;2023-07-24T01:53:10;7.70;;;2.45;;
22837;SDS011;11585;51.450;-0.240;2023-07-24T01:55:36;5.53;;;2.35;;
22837;SDS011;11585;51.450;-0.240;2023-07-24T01:58:05;11.05;;;2.42;;
22837;SDS011;11585;51.450;-0.240;2023-07-24T02:00:31;8.95;;;2.50;;
22837;SDS011;11585;51.450;-0.240;2023-07-24T02:02:57;9.45;;;2.42;;
22837;SDS011;11585;51.450;-0.240;2023-07-24T02:05:24;7.20;;;2.25;;
22837;SDS011;11585;51.450;-0.240;2023-07-24T02:07:50;7.97;;;2.60;;
22837;SDS011;11585;51.450;-0.240;2023-07-24T02:10:16;6.68;;;2.47;;
22837;SDS011;11585;51.450;-0.240;2023-07-24T02:12:41;5.63;;;2.72;;
22837;SDS011;11585;51.450;-0.240;2023-07-24T02:15:08;9.48;;;2.45;;
22837;SDS011;11585;51.450;-0.240;2023-07-24T02:17:34;6.50;;;2.60;;
22837;SDS011;11585;51.450;-0.240;2023-07-24T02:20:00;9.63;;;2.65;;
22837;SDS011;11585;51.450;-0.240;2023-07-24T02:22:26;6.43;;;2.03;;
22837;SDS011;11585;51.450;-0.240;2023-07-24T02:24:51;11.10;;;2.47;;
22837;SDS011;11585;51.450;-0.240;2023-07-24T02:27:27;10.63;;;2.33;;
22837;SDS011;11585;51.450;-0.240;2023-07-24T02:29:56;4.47;;;2.00;;
22837;SDS011;11585;51.450;-0.240;2023-07-24T02:32:22;8.88;;;2.42;;
22837;SDS011;11585;51.450;-0.240;2023-07-24T02:38:10;4.72;;;2.63;;
22837;SDS011;11585;51.450;-0.240;2023-07-24T02:40:35;6.57;;;2.38;;
22837;SDS011;11585;51.450;-0.240;2023-07-24T02:43:01;6.10;;;2.10;;
22837;SDS011;11585;51.450;-0.240;2023-07-24T02:48:49;6.70;;;2.58;;
22837;SDS011;11585;51.450;-0.240;2023-07-24T02:51:16;6.15;;;2.90;;
22837;SDS011;11585;51.450;-0.240;2023-07-24T02:53:41;10.75;;;2.60;;
22837;SDS011;11585;51.450;-0.240;2023-07-24T02:56:07;6.97;;;2.35;;
22837;SDS011;11585;51.450;-0.240;2023-07-24T02:58:33;4.93;;;2.88;;
22837;SDS011;11585;51.450;-0.240;2023-07-24T03:01:05;6.00;;;2.08;;
22837;SDS011;11585;51.450;-0.240;2023-07-24T03:03:32;5.88;;;2.40;;
22837;SDS011;11585;51.450;-0.240;2023-07-24T03:08:44;6.18;;;2.50;;
22837;SDS011;11585;51.450;-0.240;2023-07-24T03:11:13;5.05;;;2.72;;
22837;SDS011;11585;51.450;-0.240;2023-07-24T03:13:39;3.33;;;2.40;;
22837;SDS011;11585;51.450;-0.240;2023-07-24T03:18:34;2.78;;;2.10;;
22837;SDS011;11585;51.450;-0.240;2023-07-24T03:21:00;11.80;;;2.88;;
22837;SDS011;11585;51.450;-0.240;2023-07-24T03:23:26;9.40;;;2.60;;
22837;SDS011;11585;51.450;-0.240;2023-07-24T03:28:37;3.63;;;2.20;;
22837;SDS011;11585;51.450;-0.240;2023-07-24T03:31:03;6.30;;;2.58;;
22837;SDS011;11585;51.450;-0.240;2023-07-24T03:33:28;5.20;;;2.40;;
22837;SDS011;11585;51.450;-0.240;2023-07-24T03:38:24;6.35;;;2.25;;
22837;SDS011;11585;51.450;-0.240;2023-07-24T03:40:49;6.80;;;2.58;;
22837;SDS011;11585;51.450;-0.240;2023-07-24T03:43:15;5.45;;;2.38;;
22837;SDS011;11585;51.450;-0.240;2023-07-24T03:48:27;5.22;;;2.60;;
22837;SDS011;11585;51.450;-0.240;2023-07-24T03:51:00;8.10;;;2.65;;
22837;SDS011;11585;51.450;-0.240;2023-07-24T03:53:26;5.35;;;2.55;;
22837;SDS011;11585;51.450;-0.240;2023-07-24T03:55:52;7.55;;;2.90;;
22837;SDS011;11585;51.450;-0.240;2023-07-24T03:58:18;7.90;;;2.65;;
22837;SDS011;11585;51.450;-0.240;2023-07-24T04:00:44;4.85;;;2.30;;
22837;SDS011;11585;51.450;-0.240;2023-07-24T04:03:10;7.07;;;2.72;;
22837;SDS011;11585;51.450;-0.240;2023-07-24T04:05:38;7.20;;;2.60;;
22837;SDS011;11585;51.450;-0.240;2023-07-24T04:08:03;7.07;;;2.90;;
22837;SDS011;11585;51.450;-0.240;2023-07-24T04:10:29;5.90;;;2.90;;
22837;SDS011;11585;51.450;-0.240;2023-07-24T04:12:56;5.00;;;2.35;;
22837;SDS011;11585;51.450;-0.240;2023-07-24T04:18:29;6.38;;;2.35;;
22837;SDS011;11585;51.450;-0.240;2023-07-24T04:20:55;4.10;;;2.40;;
22837;SDS011;11585;51.450;-0.240;2023-07-24T04:23:21;3.95;;;2.35;;
22837;SDS011;11585;51.450;-0.240;2023-07-24T04:29:09;7.28;;;2.63;;
22837;SDS011;11585;51.450;-0.240;2023-07-24T04:34:56;8.13;;;2.40;;
22837;SDS011;11585;51.450;-0.240;2023-07-24T04:37:22;11.85;;;2.22;;
22837;SDS011;11585;51.450;-0.240;2023-07-24T04:39:48;12.27;;;2.20;;
22837;SDS011;11585;51.450;-0.240;2023-07-24T04:42:14;9.27;;;2.33;;
22837;SDS011;11585;51.450;-0.240;2023-07-24T04:47:43;7.40;;;2.45;;
22837;SDS011;11585;51.450;-0.240;2023-07-24T04:50:09;9.10;;;2.40;;
22837;SDS011;11585;51.450;-0.240;2023-07-24T04:52:34;8.95;;;2.25;;
22837;SDS011;11585;51.450;-0.240;2023-07-24T04:57:48;7.35;;;2.70;;
22837;SDS011;11585;51.450;-0.240;2023-07-24T05:00:13;7.30;;;1.92;;
22837;SDS011;11585;51.450;-0.240;2023-07-24T05:02:39;6.15;;;2.28;;
22837;SDS011;11585;51.450;-0.240;2023-07-24T05:08:27;6.78;;;2.35;;
22837;SDS011;11585;51.450;-0.240;2023-07-24T05:10:56;6.10;;;2.53;;
22837;SDS011;11585;51.450;-0.240;2023-07-24T05:13:23;7.43;;;2.50;;
22837;SDS011;11585;51.450;-0.240;2023-07-24T05:19:11;6.78;;;2.55;;
22837;SDS011;11585;51.450;-0.240;2023-07-24T05:21:37;7.43;;;2.30;;
22837;SDS011;11585;51.450;-0.240;2023-07-24T05:24:02;3.85;;;2.05;;
22837;SDS011;11585;51.450;-0.240;2023-07-24T05:26:29;5.47;;;2.15;;
22837;SDS011;11585;51.450;-0.240;2023-07-24T05:28:55;7.30;;;2.58;;
22837;SDS011;11585;51.450;-0.240;2023-07-24T05:31:20;5.03;;;2.30;;
22837;SDS011;11585;51.450;-0.240;2023-07-24T05:33:46;8.25;;;2.53;;
22837;SDS011;11585;51.450;-0.240;2023-07-24T05:39:29;4.78;;;2.40;;
22837;SDS011;11585;51.450;-0.240;2023-07-24T05:42:00;6.30;;;2.30;;
22837;SDS011;11585;51.450;-0.240;2023-07-24T05:44:29;11.93;;;2.60;;
22837;SDS011;11585;51.450;-0.240;2023-07-24T05:46:54;11.37;;;2.67;;
22837;SDS011;11585;51.450;-0.240;2023-07-24T05:49:20;9.93;;;2.45;;
22837;SDS011;11585;51.450;-0.240;2023-07-24T05:51:45;5.50;;;2.17;;
22837;SDS011;11585;51.450;-0.240;2023-07-24T05:54:11;12.65;;;2.42;;
22837;SDS011;11585;51.450;-0.240;2023-07-24T05:56:40;8.38;;;2.72;;
22837;SDS011;11585;51.450;-0.240;2023-07-24T05:59:05;5.55;;;2.55;;
22837;SDS011;11585;51.450;-0.240;2023-07-24T06:01:31;10.40;;;2.65;;
22837;SDS011;11585;51.450;-0.240;2023-07-24T06:03:56;10.55;;;2.88;;
22837;SDS011;11585;51.450;-0.240;2023-07-24T06:06:23;11.20;;;3.10;;
22837;SDS011;11585;51.450;-0.240;2023-07-24T06:08:48;6.70;;;2.92;;
22837;SDS011;11585;51.450;-0.240;2023-07-24T06:11:15;5.00;;;2.30;;
22837;SDS011;11585;51.450;-0.240;2023-07-24T06:13:41;9.48;;;2.70;;
22837;SDS011;11585;51.450;-0.240;2023-07-24T06:18:52;8.75;;;2.83;;
22837;SDS011;11585;51.450;-0.240;2023-07-24T06:21:18;4.40;;;2.15;;
22837;SDS011;11585;51.450;-0.240;2023-07-24T06:23:43;6.55;;;2.78;;
22837;SDS011;11585;51.450;-0.240;2023-07-24T06:28:54;3.33;;;2.22;;
22837;SDS011;11585;51.450;-0.240;2023-07-24T06:31:20;12.40;;;2.85;;
22837;SDS011;11585;51.450;-0.240;2023-07-24T06:33:45;14.05;;;2.85;;
22837;SDS011;11585;51.450;-0.240;2023-07-24T06:38:56;9.57;;;2.70;;
22837;SDS011;11585;51.450;-0.240;2023-07-24T06:41:22;12.15;;;2.58;;
22837;SDS011;11585;51.450;-0.240;2023-07-24T06:43:48;3.67;;;2.03;;
22837;SDS011;11585;51.450;-0.240;2023-07-24T06:46:14;8.90;;;2.58;;
22837;SDS011;11585;51.450;-0.240;2023-07-24T06:48:40;6.72;;;2.83;;
22837;SDS011;11585;51.450;-0.240;2023-07-24T06:51:05;8.73;;;2.38;;
22837;SDS011;11585;51.450;-0.240;2023-07-24T06:53:31;7.72;;;2.95;;
22837;SDS011;11585;51.450;-0.240;2023-07-24T06:55:58;8.48;;;2.67;;
22837;SDS011;11585;51.450;-0.240;2023-07-24T06:58:23;7.07;;;2.67;;
22837;SDS011;11585;51.450;-0.240;2023-07-24T07:00:49;7.22;;;2.63;;
22837;SDS011;11585;51.450;-0.240;2023-07-24T07:03:14;5.65;;;2.67;;
22837;SDS011;11585;51.450;-0.240;2023-07-24T07:08:31;5.03;;;2.40;;
22837;SDS011;11585;51.450;-0.240;2023-07-24T07:11:00;9.93;;;2.90;;
22837;SDS011;11585;51.450;-0.240;2023-07-24T07:13:26;8.77;;;2.47;;
22837;SDS011;11585;51.450;-0.240;2023-07-24T07:18:41;7.32;;;2.90;;
22837;SDS011;11585;51.450;-0.240;2023-07-24T07:21:07;4.50;;;2.45;;
22837;SDS011;11585;51.450;-0.240;2023-07-24T07:23:32;4.50;;;2.60;;
22837;SDS011;11585;51.450;-0.240;2023-07-24T07:28:43;6.15;;;2.60;;
22837;SDS011;11585;51.450;-0.240;2023-07-24T07:31:12;7.80;;;2.67;;
22837;SDS011;11585;51.450;-0.240;2023-07-24T07:33:37;4.75;;;2.53;;
22837;SDS011;11585;51.450;-0.240;2023-07-24T07:39:26;7.82;;;3.53;;
22837;SDS011;11585;51.450;-0.240;2023-07-24T07:41:51;6.45;;;2.95;;
22837;SDS011;11585;51.450;-0.240;2023-07-24T07:44:17;5.55;;;2.72;;
22837;SDS011;11585;51.450;-0.240;2023-07-24T07:49:47;5.00;;;2.30;;
22837;SDS011;11585;51.450;-0.240;2023-07-24T07:52:13;12.15;;;2.65;;
22837;SDS011;11585;51.450;-0.240;2023-07-24T07:54:45;7.25;;;2.75;;
22837;SDS011;11585;51.450;-0.240;2023-07-24T07:57:14;7.57;;;3.00;;
22837;SDS011;11585;51.450;-0.240;2023-07-24T07:59:40;5.88;;;2.65;;
22837;SDS011;11585;51.450;-0.240;2023-07-24T08:02:05;7.45;;;3.13;;
22837;SDS011;11585;51.450;-0.240;2023-07-24T08:07:54;12.50;;;3.60;;
22837;SDS011;11585;51.450;-0.240;2023-07-24T08:10:19;8.63;;;3.13;;
22837;SDS011;11585;51.450;-0.240;2023-07-24T08:12:45;9.60;;;2.72;;
22837;SDS011;11585;51.450;-0.240;2023-07-24T08:18:00;10.10;;;3.17;;
22837;SDS011;11585;51.450;-0.240;2023-07-24T08:20:26;7.88;;;3.60;;
22837;SDS011;11585;51.450;-0.240;2023-07-24T08:22:52;7.85;;;3.00;;
22837;SDS011;11585;51.450;-0.240;2023-07-24T08:28:02;4.55;;;2.47;;
22837;SDS011;11585;51.450;-0.240;2023-07-24T08:30:29;4.38;;;1.67;;
22837;SDS011;11585;51.450;-0.240;2023-07-24T08:32:56;2.75;;;1.23;;
22837;SDS011;11585;51.450;-0.240;2023-07-24T08:35:22;1.38;;;1.02;;
22837;SDS011;11585;51.450;-0.240;2023-07-24T08:37:48;5.90;;;1.05;;
22837;SDS011;11585;51.450;-0.240;2023-07-24T08:40:17;1.48;;;0.98;;
22837;SDS011;11585;51.450;-0.240;2023-07-24T08:42:42;2.47;;;1.20;;
22837;SDS011;11585;51.450;-0.240;2023-07-24T08:45:11;4.25;;;0.90;;
22837;SDS011;11585;51.450;-0.240;2023-07-24T08:47:42;3.58;;;1.15;;
22837;SDS011;11585;51.450;-0.240;2023-07-24T08:50:09;1.02;;;0.80;;
22837;SDS011;11585;51.450;-0.240;2023-07-24T08:52:36;4.00;;;1.85;;
22837;SDS011;11585;51.450;-0.240;2023-07-24T08:57:33;2.70;;;1.00;;
22837;SDS011;11585;51.450;-0.240;2023-07-24T09:00:00;2.35;;;1.00;;
22837;SDS011;11585;51.450;-0.240;2023-07-24T09:02:29;3.05;;;1.10;;
22837;SDS011;11585;51.450;-0.240;2023-07-24T09:11:04;1.05;;;0.80;;
22837;SDS011;11585;51.450;-0.240;2023-07-24T09:13:31;3.10;;;0.85;;
22837;SDS011;11585;51.450;-0.240;2023-07-24T09:19:19;1.88;;;0.95;;
22837;SDS011;11585;51.450;-0.240;2023-07-24T09:21:45;1.48;;;0.50;;
22837;SDS011;11585;51.450;-0.240;2023-07-24T09:24:14;2.00;;;0.90;;
22837;SDS011;11585;51.450;-0.240;2023-07-24T09:30:02;3.63;;;0.77;;
22837;SDS011;11585;51.450;-0.240;2023-07-24T09:32:38;7.00;;;0.80;;
22837;SDS011;11585;51.450;-0.240;2023-07-24T09:38:08;4.15;;;0.90;;
22837;SDS011;11585;51.450;-0.240;2023-07-24T09:40:38;1.55;;;0.73;;
22837;SDS011;11585;51.450;-0.240;2023-07-24T09:43:15;4.53;;;0.90;;
22837;SDS011;11585;51.450;-0.240;2023-07-24T09:48:28;2.45;;;0.70;;
22837;SDS011;11585;51.450;-0.240;2023-07-24T09:50:56;0.80;;;0.60;;
22837;SDS011;11585;51.450;-0.240;2023-07-24T09:53:29;0.95;;;0.60;;
22837;SDS011;11585;51.450;-0.240;2023-07-24T09:58:50;1.33;;;0.93;;
22837;SDS011;11585;51.450;-0.240;2023-07-24T10:01:20;0.95;;;0.70;;
22837;SDS011;11585;51.450;-0.240;2023-07-24T10:03:46;1.30;;;0.77;;
22837;SDS011;11585;51.450;-0.240;2023-07-24T10:08:45;4.03;;;1.45;;
22837;SDS011;11585;51.450;-0.240;2023-07-24T10:11:11;2.47;;;0.93;;
22837;SDS011;11585;51.450;-0.240;2023-07-24T10:13:39;3.88;;;1.50;;
22837;SDS011;11585;51.450;-0.240;2023-07-24T10:16:07;3.28;;;0.90;;
22837;SDS011;11585;51.450;-0.240;2023-07-24T10:18:34;1.02;;;0.80;;
22837;SDS011;11585;51.450;-0.240;2023-07-24T10:21:07;5.18;;;2.03;;
22837;SDS011;11585;51.450;-0.240;2023-07-24T10:23:40;1.27;;;0.80;;
22837;SDS011;11585;51.450;-0.240;2023-07-24T10:26:10;2.20;;;0.60;;
22837;SDS011;11585;51.450;-0.240;2023-07-24T10:28:36;2.75;;;0.80;;
22837;SDS011;11585;51.450;-0.240;2023-07-24T10:31:04;3.65;;;1.13;;
22837;SDS011;11585;51.450;-0.240;2023-07-24T10:33:34;3.53;;;0.93;;
22837;SDS011;11585;51.450;-0.240;2023-07-24T10:36:09;1.65;;;0.98;;
22837;SDS011;11585;51.450;-0.240;2023-07-24T10:38:40;3.20;;;1.30;;
22837;SDS011;11585;51.450;-0.240;2023-07-24T10:41:07;2.53;;;1.40;;
22837;SDS011;11585;51.450;-0.240;2023-07-24T10:43:42;2.92;;;1.08;;
22837;SDS011;11585;51.450;-0.240;2023-07-24T10:49:31;1.30;;;0.90;;
22837;SDS011;11585;51.450;-0.240;2023-07-24T10:51:57;1.52;;;1.13;;
22837;SDS011;11585;51.450;-0.240;2023-07-24T10:54:23;1.67;;;1.20;;
22837;SDS011;11585;51.450;-0.240;2023-07-24T10:59:35;1.10;;;0.60;;
22837;SDS011;11585;51.450;-0.240;2023-07-24T11:02:02;2.25;;;1.17;;
22837;SDS011;11585;51.450;-0.240;2023-07-24T11:04:29;2.50;;;1.65;;
22837;SDS011;11585;51.450;-0.240;2023-07-24T11:06:55;5.75;;;1.95;;
22837;SDS011;11585;51.450;-0.240;2023-07-24T11:09:22;3.80;;;2.45;;
22837;SDS011;11585;51.450;-0.240;2023-07-24T11:11:58;3.15;;;1.70;;
22837;SDS011;11585;51.450;-0.240;2023-07-24T11:14:24;5.43;;;2.72;;
22837;SDS011;11585;51.450;-0.240;2023-07-24T11:16:50;1.67;;;1.15;;
22837;SDS011;11585;51.450;-0.240;2023-07-24T11:19:25;3.58;;;1.25;;
22837;SDS011;11585;51.450;-0.240;2023-07-24T11:21:50;2.33;;;1.40;;
22837;SDS011;11585;51.450;-0.240;2023-07-24T11:24:17;1.77;;;1.05;;
22837;SDS011;11585;51.450;-0.240;2023-07-24T11:30:05;1.15;;;0.70;;
22837;SDS011;11585;51.450;-0.240;2023-07-24T11:38:56;10.65;;;2.53;;
22837;SDS011;11585;51.450;-0.240;2023-07-24T11:41:22;3.90;;;1.50;;
22837;SDS011;11585;51.450;-0.240;2023-07-24T11:43:48;7.65;;;1.92;;
22837;SDS011;11585;51.450;-0.240;2023-07-24T11:49:37;3.50;;;1.70;;
22837;SDS011;11585;51.450;-0.240;2023-07-24T11:52:24;4.25;;;1.33;;
22837;SDS011;11585;51.450;-0.240;2023-07-24T12:01:34;7.07;;;2.58;;
22837;SDS011;11585;51.450;-0.240;2023-07-24T12:03:59;3.90;;;1.73;;
22837;SDS011;11585;51.450;-0.240;2023-07-24T12:09:50;4.72;;;1.63;;
22837;SDS011;11585;51.450;-0.240;2023-07-24T12:12:17;1.85;;;1.10;;
22837;SDS011;11585;51.450;-0.240;2023-07-24T12:17:27;2.50;;;1.50;;
22837;SDS011;11585;51.450;-0.240;2023-07-24T12:19:53;4.45;;;1.50;;
22837;SDS011;11585;51.450;-0.240;2023-07-24T12:22:19;4.75;;;1.58;;
22837;SDS011;11585;51.450;-0.240;2023-07-24T12:24:46;1.88;;;1.00;;
22837;SDS011;11585;51.450;-0.240;2023-07-24T12:27:12;4.10;;;2.03;;
22837;SDS011;11585;51.450;-0.240;2023-07-24T12:29:37;2.95;;;1.40;;
22837;SDS011;11585;51.450;-0.240;2023-07-24T12:32:03;5.20;;;1.20;;
22837;SDS011;11585;51.450;-0.240;2023-07-24T12:34:29;2.17;;;1.15;;
22837;SDS011;11585;51.450;-0.240;2023-07-24T12:36:55;2.45;;;1.42;;
22837;SDS011;11585;51.450;-0.240;2023-07-24T12:39:20;2.72;;;1.55;;
22837;SDS011;11585;51.450;-0.240;2023-07-24T12:41:46;5.53;;;1.80;;
22837;SDS011;11585;51.450;-0.240;2023-07-24T12:44:11;5.60;;;2.05;;
22837;SDS011;11585;51.450;-0.240;2023-07-24T12:46:38;5.30;;;3.00;;
22837;SDS011;11585;51.450;-0.240;2023-07-24T12:49:04;4.53;;;2.60;;
22837;SDS011;11585;51.450;-0.240;2023-07-24T12:51:29;9.95;;;3.53;;
22837;SDS011;11585;51.450;-0.240;2023-07-24T12:53:55;9.68;;;3.08;;
22837;SDS011;11585;51.450;-0.240;2023-07-24T12:56:22;8.57;;;3.28;;
22837;SDS011;11585;51.450;-0.240;2023-07-24T12:58:47;10.35;;;3.90;;
22837;SDS011;11585;51.450;-0.240;2023-07-24T13:01:13;6.90;;;2.45;;
22837;SDS011;11585;51.450;-0.240;2023-07-24T13:03:38;6.88;;;2.35;;
22837;SDS011;11585;51.450;-0.240;2023-07-24T13:08:35;5.90;;;2.03;;
22837;SDS011;11585;51.450;-0.240;2023-07-24T13:11:00;4.78;;;1.92;;
22837;SDS011;11585;51.450;-0.240;2023-07-24T13:13:26;2.47;;;1.58;;
22837;SDS011;11585;51.450;-0.240;2023-07-24T13:15:53;5.38;;;2.75;;
22837;SDS011;11585;51.450;-0.240;2023-07-24T13:18:18;5.00;;;2.03;;
22837;SDS011;11585;51.450;-0.240;2023-07-24T13:20:45;3.28;;;1.40;;
22837;SDS011;11585;51.450;-0.240;2023-07-24T13:23:11;2.20;;;1.55;;
22837;SDS011;11585;51.450;-0.240;2023-07-24T13:31:28;4.50;;;1.70;;
22837;SDS011;11585;51.450;-0.240;2023-07-24T13:33:55;4.70;;;1.63;;
22837;SDS011;11585;51.450;-0.240;2023-07-24T13:39:43;4.80;;;2.35;;
22837;SDS011;11585;51.450;-0.240;2023-07-24T13:45:31;3.28;;;1.73;;
22837;SDS011;11585;51.450;-0.240;2023-07-24T13:47:57;3.28;;;1.90;;
22837;SDS011;11585;51.450;-0.240;2023-07-24T13:50:23;5.82;;;2.28;;
22837;SDS011;11585;51.450;-0.240;2023-07-24T13:52:49;4.05;;;2.20;;
22837;SDS011;11585;51.450;-0.240;2023-07-24T13:58:02;8.70;;;2.55;;
22837;SDS011;11585;51.450;-0.240;2023-07-24T14:00:28;4.15;;;2.10;;
22837;SDS011;11585;51.450;-0.240;2023-07-24T14:02:53;5.78;;;2.22;;
22837;SDS011;11585;51.450;-0.240;2023-07-24T14:08:27;7.03;;;2.38;;
22837;SDS011;11585;51.450;-0.240;2023-07-24T14:10:53;5.15;;;1.90;;
22837;SDS011;11585;51.450;-0.240;2023-07-24T14:13:18;7.28;;;3.17;;
22837;SDS011;11585;51.450;-0.240;2023-07-24T14:19:06;7.20;;;2.30;;
22837;SDS011;11585;51.450;-0.240;2023-07-24T14:21:32;4.47;;;2.15;;
22837;SDS011;11585;51.450;-0.240;2023-07-24T14:23:57;5.22;;;2.47;;
22837;SDS011;11585;51.450;-0.240;2023-07-24T14:26:25;4.35;;;2.00;;
22837;SDS011;11585;51.450;-0.240;2023-07-24T14:28:51;7.78;;;2.30;;
22837;SDS011;11585;51.450;-0.240;2023-07-24T14:31:16;2.80;;;1.88;;
22837;SDS011;11585;51.450;-0.240;2023-07-24T14:33:42;4.15;;;1.50;;
22837;SDS011;11585;51.450;-0.240;2023-07-24T14:38:36;4.47;;;1.80;;
22837;SDS011;11585;51.450;-0.240;2023-07-24T14:41:02;3.78;;;1.83;;
22837;SDS011;11585;51.450;-0.240;2023-07-24T14:43:27;5.75;;;2.05;;
22837;SDS011;11585;51.450;-0.240;2023-07-24T14:49:15;12.00;;;2.55;;
22837;SDS011;11585;51.450;-0.240;2023-07-24T14:51:40;5.03;;;2.20;;
22837;SDS011;11585;51.450;-0.240;2023-07-24T14:54:06;4.13;;;1.85;;
22837;SDS011;11585;51.450;-0.240;2023-07-24T14:59:36;6.38;;;2.78;;
22837;SDS011;11585;51.450;-0.240;2023-07-24T15:02:02;11.13;;;2.92;;
22837;SDS011;11585;51.450;-0.240;2023-07-24T15:07:50;9.40;;;2.92;;
22837;SDS011;11585;51.450;-0.240;2023-07-24T15:10:15;6.03;;;2.30;;
22837;SDS011;11585;51.450;-0.240;2023-07-24T15:12:41;7.03;;;2.70;;
22837;SDS011;11585;51.450;-0.240;2023-07-24T15:18:12;4.97;;;2.03;;
22837;SDS011;11585;51.450;-0.240;2023-07-24T15:20:37;6.07;;;2.10;;
22837;SDS011;11585;51.450;-0.240;2023-07-24T15:23:03;8.68;;;2.38;;
22837;SDS011;11585;51.450;-0.240;2023-07-24T15:28:51;7.22;;;2.97;;
22837;SDS011;11585;51.450;-0.240;2023-07-24T15:31:16;9.50;;;3.33;;
22837;SDS011;11585;51.450;-0.240;2023-07-24T15:33:42;6.07;;;2.47;;
22837;SDS011;11585;51.450;-0.240;2023-07-24T15:36:08;7.78;;;2.63;;
22837;SDS011;11585;51.450;-0.240;2023-07-24T15:38:33;4.32;;;1.88;;
22837;SDS011;11585;51.450;-0.240;2023-07-24T15:40:59;6.72;;;2.00;;
22837;SDS011;11585;51.450;-0.240;2023-07-24T15:43:24;8.70;;;2.75;;
22837;SDS011;11585;51.450;-0.240;2023-07-24T15:49:13;4.68;;;2.38;;
22837;SDS011;11585;51.450;-0.240;2023-07-24T15:51:39;5.13;;;2.28;;
22837;SDS011;11585;51.450;-0.240;2023-07-24T15:54:05;4.43;;;2.10;;
22837;SDS011;11585;51.450;-0.240;2023-07-24T15:59:22;10.52;;;3.00;;
22837;SDS011;11585;51.450;-0.240;2023-07-24T16:01:48;9.23;;;3.22;;
22837;SDS011;11585;51.450;-0.240;2023-07-24T16:04:13;5.82;;;1.73;;
22837;SDS011;11585;51.450;-0.240;2023-07-24T16:06:39;2.65;;;2.05;;
22837;SDS011;11585;51.450;-0.240;2023-07-24T16:09:05;12.52;;;3.40;;
22837;SDS011;11585;51.450;-0.240;2023-07-24T16:11:31;5.32;;;2.20;;
22837;SDS011;11585;51.450;-0.240;2023-07-24T16:13:57;4.40;;;2.05;;
22837;SDS011;11585;51.450;-0.240;2023-07-24T16:19:17;8.13;;;4.10;;
22837;SDS011;11585;51.450;-0.240;2023-07-24T16:21:45;17.67;;;5.45;;
22837;SDS011;11585;51.450;-0.240;2023-07-24T16:24:12;5.03;;;2.72;;
22837;SDS011;11585;51.450;-0.240;2023-07-24T16:26:40;17.48;;;6.65;;
22837;SDS011;11585;51.450;-0.240;2023-07-24T16:29:06;6.97;;;3.50;;
22837;SDS011;11585;51.450;-0.240;2023-07-24T16:31:32;10.15;;;3.63;;
22837;SDS011;11585;51.450;-0.240;2023-07-24T16:33:57;6.93;;;2.33;;
22837;SDS011;11585;51.450;-0.240;2023-07-24T16:39:13;9.45;;;3.15;;
22837;SDS011;11585;51.450;-0.240;2023-07-24T16:42:01;8.48;;;3.05;;
22837;SDS011;11585;51.450;-0.240;2023-07-24T16:44:27;18.75;;;5.55;;
22837;SDS011;11585;51.450;-0.240;2023-07-24T16:47:01;8.65;;;3.00;;
22837;SDS011;11585;51.450;-0.240;2023-07-24T16:52:53;15.82;;;3.08;;
22837;SDS011;11585;51.450;-0.240;2023-07-24T16:58:23;9.15;;;3.40;;
22837;SDS011;11585;51.450;-0.240;2023-07-24T17:00:49;9.88;;;2.88;;
22837;SDS011;11585;51.450;-0.240;2023-07-24T17:03:14;6.13;;;2.72;;
22837;SDS011;11585;51.450;-0.240;2023-07-24T17:05:42;5.43;;;2.47;;
22837;SDS011;11585;51.450;-0.240;2023-07-24T17:08:08;9.60;;;3.35;;
22837;SDS011;11585;51.450;-0.240;2023-07-24T17:10:40;6.60;;;3.00;;
22837;SDS011;11585;51.450;-0.240;2023-07-24T17:13:08;7.18;;;2.78;;
22837;SDS011;11585;51.450;-0.240;2023-07-24T17:15:33;10.30;;;4.03;;
22837;SDS011;11585;51.450;-0.240;2023-07-24T17:17:59;8.13;;;3.42;;
22837;SDS011;11585;51.450;-0.240;2023-07-24T17:20:25;8.13;;;2.70;;
22837;SDS011;11585;51.450;-0.240;2023-07-24T17:22:50;9.38;;;3.42;;
22837;SDS011;11585;51.450;-0.240;2023-07-24T17:25:18;7.05;;;2.72;;
22837;SDS011;11585;51.450;-0.240;2023-07-24T17:27:44;8.50;;;2.92;;
22837;SDS011;11585;51.450;-0.240;2023-07-24T17:30:09;10.05;;;3.78;;
22837;SDS011;11585;51.450;-0.240;2023-07-24T17:32:35;12.30;;;4.72;;
22837;SDS011;11585;51.450;-0.240;2023-07-24T17:38:23;8.00;;;3.47;;
22837;SDS011;11585;51.450;-0.240;2023-07-24T17:44:10;6.10;;;2.40;;
22837;SDS011;11585;51.450;-0.240;2023-07-24T17:46:37;9.35;;;3.20;;
22837;SDS011;11585;51.450;-0.240;2023-07-24T17:49:03;8.38;;;3.22;;
22837;SDS011;11585;51.450;-0.240;2023-07-24T17:51:28;12.85;;;3.60;;
22837;SDS011;11585;51.450;-0.240;2023-07-24T17:53:54;12.23;;;3.88;;
22837;SDS011;11585;51.450;-0.240;2023-07-24T17:59:43;9.07;;;3.75;;
22837;SDS011;11585;51.450;-0.240;2023-07-24T18:05:31;6.43;;;2.50;;
22837;SDS011;11585;51.450;-0.240;2023-07-24T18:07:57;5.75;;;2.35;;
22837;SDS011;11585;51.450;-0.240;2023-07-24T18:10:22;6.85;;;2.38;;
22837;SDS011;11585;51.450;-0.240;2023-07-24T18:12:48;5.65;;;2.03;;
22837;SDS011;11585;51.450;-0.240;2023-07-24T18:15:16;8.98;;;2.25;;
22837;SDS011;11585;51.450;-0.240;2023-07-24T18:17:42;5.13;;;2.25;;
22837;SDS011;11585;51.450;-0.240;2023-07-24T18:20:10;6.00;;;2.72;;
22837;SDS011;11585;51.450;-0.240;2023-07-24T18:22:36;7.90;;;2.80;;
22837;SDS011;11585;51.450;-0.240;2023-07-24T18:28:14;4.30;;;2.35;;